createdAt,value
2022-10-08T00:01:31.015Z,13.10
2022-10-08T00:04:00.590Z,13.10
2022-10-08T00:06:31.460Z,13.10
2022-10-08T00:09:02.295Z,13.10
2022-10-08T00:11:32.489Z,13.10
2022-10-08T00:14:02.179Z,13.10
2022-10-08T00:16:32.515Z,13.10
2022-10-08T00:19:04.063Z,13.00
2022-10-08T00:21:34.098Z,13.00
2022-10-08T00:24:03.244Z,13.00
2022-10-08T00:26:33.043Z,13.00
2022-10-08T00:29:03.544Z,13.00
2022-10-08T00:31:33.855Z,13.00
2022-10-08T00:34:05.946Z,13.00
2022-10-08T00:36:35.204Z,13.00
2022-10-08T00:39:05.795Z,13.00
2022-10-08T00:41:38.794Z,13.00
2022-10-08T00:44:40.039Z,13.00
2022-10-08T00:47:19.370Z,13.00
2022-10-08T00:49:51.275Z,12.90
2022-10-08T00:52:20.772Z,12.90
2022-10-08T00:54:50.172Z,12.90
2022-10-08T00:57:18.997Z,12.90
2022-10-08T00:59:47.067Z,12.90
2022-10-08T01:02:15.549Z,12.90
2022-10-08T01:04:44.814Z,12.90
2022-10-08T01:07:24.152Z,12.90
2022-10-08T01:09:59.759Z,12.90
2022-10-08T01:12:35.999Z,13.00
2022-10-08T01:15:12.981Z,12.90
2022-10-08T01:17:50.991Z,12.90
2022-10-08T01:20:37.268Z,12.90
2022-10-08T01:23:30.696Z,12.90
2022-10-08T01:26:09.793Z,12.90
2022-10-08T01:28:44.044Z,12.90
2022-10-08T01:31:19.181Z,12.90
2022-10-08T01:33:52.093Z,12.90
2022-10-08T01:36:22.127Z,13.00
2022-10-08T01:38:53.626Z,13.00
2022-10-08T01:41:25.809Z,13.00
2022-10-08T01:44:01.676Z,13.00
2022-10-08T01:46:32.888Z,13.00
2022-10-08T01:49:07.545Z,13.00
2022-10-08T01:51:40.252Z,13.00
2022-10-08T01:54:11.116Z,13.00
2022-10-08T01:56:42.126Z,13.00
2022-10-08T01:59:17.278Z,13.00
2022-10-08T02:01:56.187Z,13.00
2022-10-08T02:04:35.286Z,13.00
2022-10-08T02:07:07.975Z,13.00
2022-10-08T02:09:39.633Z,13.00
2022-10-08T02:12:08.836Z,13.00
2022-10-08T02:14:40.771Z,13.00
2022-10-08T02:17:24.403Z,13.00
2022-10-08T02:19:56.924Z,13.00
2022-10-08T02:22:30.885Z,13.00
2022-10-08T02:25:03.093Z,13.00
2022-10-08T02:27:45.521Z,13.00
2022-10-08T02:30:15.310Z,13.00
2022-10-08T02:32:51.363Z,13.00
2022-10-08T02:35:25.446Z,13.00
2022-10-08T02:37:59.508Z,13.10
2022-10-08T02:40:30.515Z,13.10
2022-10-08T02:43:04.097Z,13.10
2022-10-08T02:45:39.072Z,13.10
2022-10-08T02:48:12.135Z,13.20
2022-10-08T02:50:44.304Z,13.20
2022-10-08T02:53:14.673Z,13.20
2022-10-08T02:55:51.662Z,13.20
2022-10-08T02:58:20.593Z,13.20
2022-10-08T03:00:54.768Z,13.20
2022-10-08T03:03:29.186Z,13.20
2022-10-08T03:05:58.811Z,13.20
2022-10-08T03:08:27.677Z,13.20
2022-10-08T03:10:56.038Z,13.20
2022-10-08T03:13:25.601Z,13.20
2022-10-08T03:15:56.161Z,13.10
2022-10-08T03:18:26.368Z,13.10
2022-10-08T03:20:56.159Z,13.10
2022-10-08T03:23:25.584Z,13.10
2022-10-08T03:25:53.588Z,13.10
2022-10-08T03:28:21.672Z,13.10
2022-10-08T03:30:49.854Z,13.10
2022-10-08T03:33:19.396Z,13.10
2022-10-08T03:35:48.049Z,13.10
2022-10-08T03:38:17.584Z,13.10
2022-10-08T03:40:54.793Z,13.20
2022-10-08T03:43:23.223Z,13.20
2022-10-08T03:45:52.841Z,13.20
2022-10-08T03:48:23.733Z,13.20
2022-10-08T03:50:53.771Z,13.20
2022-10-08T03:53:21.959Z,13.30
2022-10-08T03:55:50.140Z,13.30
2022-10-08T03:58:18.845Z,13.30
2022-10-08T04:00:57.784Z,13.30
2022-10-08T04:03:28.033Z,13.30
2022-10-08T04:05:56.117Z,13.40
2022-10-08T04:08:24.560Z,13.40
2022-10-08T04:10:52.839Z,13.40
2022-10-08T04:13:21.603Z,13.40
2022-10-08T04:15:50.832Z,13.40
2022-10-08T04:18:19.384Z,13.40
2022-10-08T04:20:48.800Z,13.50
2022-10-08T04:23:16.903Z,13.50
2022-10-08T04:25:51.929Z,13.50
2022-10-08T04:28:20.273Z,13.40
2022-10-08T04:30:57.361Z,13.40
2022-10-08T04:33:25.652Z,13.50
2022-10-08T04:35:59.912Z,13.40
2022-10-08T04:38:28.936Z,13.50
2022-10-08T04:41:04.641Z,13.40
2022-10-08T04:43:32.807Z,13.40
2022-10-08T04:46:00.913Z,13.40
2022-10-08T04:48:29.111Z,13.40
2022-10-08T04:50:59.817Z,13.30
2022-10-08T04:53:28.835Z,13.30
2022-10-08T04:55:58.525Z,13.30
2022-10-08T04:58:27.342Z,13.30
2022-10-08T05:00:55.412Z,13.20
2022-10-08T05:03:23.465Z,13.20
2022-10-08T05:05:51.560Z,13.20
2022-10-08T05:08:21.025Z,13.10
2022-10-08T05:10:50.033Z,13.10
2022-10-08T05:13:18.122Z,13.10
2022-10-08T05:15:46.245Z,13.10
2022-10-08T05:18:14.323Z,13.00
2022-10-08T05:20:42.553Z,13.00
2022-10-08T05:23:10.602Z,13.00
2022-10-08T05:25:40.218Z,13.00
2022-10-08T05:28:08.413Z,13.00
2022-10-08T05:30:36.495Z,13.00
2022-10-08T05:33:04.628Z,13.00
2022-10-08T05:35:32.681Z,13.00
2022-10-08T05:38:00.721Z,13.00
2022-10-08T05:40:29.694Z,13.10
2022-10-08T05:42:59.132Z,13.10
2022-10-08T05:45:27.201Z,13.10
2022-10-08T05:47:55.708Z,13.10
2022-10-08T05:50:23.732Z,13.10
2022-10-08T05:52:51.781Z,13.10
2022-10-08T05:55:20.957Z,13.10
2022-10-08T05:57:49.002Z,13.10
2022-10-08T06:00:18.586Z,13.20
2022-10-08T06:02:47.045Z,13.20
2022-10-08T06:05:15.349Z,13.20
2022-10-08T06:07:43.384Z,13.20
2022-10-08T06:10:11.528Z,13.20
2022-10-08T06:12:39.579Z,13.20
2022-10-08T06:15:08.433Z,13.20
2022-10-08T06:17:37.868Z,13.20
2022-10-08T06:20:06.650Z,13.20
2022-10-08T06:22:34.750Z,13.30
2022-10-08T06:25:02.814Z,13.30
2022-10-08T06:27:30.857Z,13.30
2022-10-08T06:29:58.877Z,13.30
2022-10-08T06:32:26.956Z,13.30
2022-10-08T06:34:56.443Z,13.30
2022-10-08T06:37:24.517Z,13.30
2022-10-08T06:39:52.573Z,13.40
2022-10-08T06:42:20.612Z,13.40
2022-10-08T06:44:48.878Z,13.40
2022-10-08T06:47:16.917Z,13.50
2022-10-08T06:49:44.944Z,13.50
2022-10-08T06:52:14.356Z,13.50
2022-10-08T06:54:42.366Z,13.50
2022-10-08T06:57:10.409Z,13.50
2022-10-08T06:59:38.407Z,13.50
2022-10-08T07:02:07.486Z,13.50
2022-10-08T07:04:35.630Z,13.60
2022-10-08T07:07:03.749Z,13.60
2022-10-08T07:09:33.160Z,13.60
2022-10-08T07:12:01.191Z,13.70
2022-10-08T07:14:29.216Z,13.70
2022-10-08T07:16:57.260Z,13.70
2022-10-08T07:19:25.541Z,13.80
2022-10-08T07:21:56.733Z,13.80
2022-10-08T07:24:27.118Z,13.80
2022-10-08T07:26:56.611Z,13.90
2022-10-08T07:29:26.351Z,13.90
2022-10-08T07:31:54.747Z,13.90
2022-10-08T07:34:22.904Z,14.00
2022-10-08T07:36:51.031Z,14.00
2022-10-08T07:39:20.217Z,14.10
2022-10-08T07:41:49.146Z,14.10
2022-10-08T07:44:19.151Z,14.10
2022-10-08T07:46:49.261Z,14.20
2022-10-08T07:49:18.107Z,14.20
2022-10-08T07:51:46.836Z,14.20
2022-10-08T07:54:17.447Z,14.30
2022-10-08T07:56:46.867Z,14.30
2022-10-08T07:59:16.146Z,14.30
2022-10-08T08:01:45.994Z,14.30
2022-10-08T08:04:14.764Z,14.40
2022-10-08T08:06:45.043Z,14.40
2022-10-08T08:09:14.406Z,14.50
2022-10-08T08:11:42.591Z,14.60
2022-10-08T08:14:10.648Z,14.60
2022-10-08T08:16:39.020Z,14.70
2022-10-08T08:19:08.637Z,14.70
2022-10-08T08:21:38.599Z,14.80
2022-10-08T08:24:09.062Z,14.80
2022-10-08T08:26:39.013Z,14.90
2022-10-08T08:29:09.709Z,14.90
2022-10-08T08:31:39.891Z,15.00
2022-10-08T08:34:11.526Z,15.00
2022-10-08T08:36:40.916Z,15.00
2022-10-08T08:39:12.076Z,15.10
2022-10-08T08:41:53.210Z,15.10
2022-10-08T08:44:23.526Z,15.20
2022-10-08T08:46:55.887Z,15.30
2022-10-08T08:49:31.860Z,15.30
2022-10-08T08:52:02.585Z,15.40
2022-10-08T08:54:31.057Z,15.50
2022-10-08T08:57:11.614Z,15.50
2022-10-08T08:59:45.314Z,15.60
2022-10-08T09:02:21.078Z,15.60
2022-10-08T09:04:52.954Z,15.60
2022-10-08T09:07:25.310Z,15.70
2022-10-08T09:09:55.751Z,15.70
2022-10-08T09:12:28.166Z,15.70
2022-10-08T09:14:58.922Z,15.80
2022-10-08T09:17:32.267Z,15.90
2022-10-08T09:20:01.873Z,16.00
2022-10-08T09:22:33.177Z,16.10
2022-10-08T09:25:04.416Z,16.20
2022-10-08T09:27:45.474Z,16.40
2022-10-08T09:30:30.467Z,16.60
2022-10-08T09:33:01.670Z,16.80
2022-10-08T09:35:33.733Z,16.90
2022-10-08T09:38:05.941Z,17.10
2022-10-08T09:40:34.246Z,17.30
2022-10-08T09:43:14.661Z,17.50
2022-10-08T09:45:46.502Z,17.50
2022-10-08T09:48:20.250Z,17.60
2022-10-08T09:50:59.714Z,17.60
2022-10-08T09:53:33.299Z,17.70
2022-10-08T09:56:03.413Z,17.80
2022-10-08T09:58:34.054Z,17.80
2022-10-08T10:01:05.906Z,18.00
2022-10-08T10:03:36.649Z,18.00
2022-10-08T10:06:06.528Z,18.10
2022-10-08T10:08:51.698Z,18.00
2022-10-08T10:11:25.994Z,18.00
2022-10-08T10:13:56.042Z,18.10
2022-10-08T10:16:27.411Z,18.10
2022-10-08T10:18:59.937Z,18.20
2022-10-08T10:21:36.890Z,18.20
2022-10-08T10:24:17.066Z,18.30
2022-10-08T10:26:46.870Z,18.30
2022-10-08T10:29:19.852Z,18.40
2022-10-08T10:31:52.184Z,18.40
2022-10-08T10:34:26.797Z,18.40
2022-10-08T10:36:58.780Z,18.30
2022-10-08T10:39:35.314Z,18.20
2022-10-08T10:42:11.444Z,18.10
2022-10-08T10:44:51.361Z,18.10
2022-10-08T10:47:22.969Z,18.10
2022-10-08T10:49:52.115Z,18.10
2022-10-08T10:52:43.753Z,18.30
2022-10-08T10:55:23.172Z,18.40
2022-10-08T10:58:10.079Z,18.40
2022-10-08T11:00:46.589Z,18.40
2022-10-08T11:03:23.538Z,18.30
2022-10-08T11:05:59.197Z,18.30
2022-10-08T11:08:36.861Z,18.20
2022-10-08T11:11:18.281Z,18.10
2022-10-08T11:14:05.366Z,18.00
2022-10-08T11:16:48.374Z,17.90
2022-10-08T11:19:28.670Z,17.70
2022-10-08T11:22:06.471Z,17.60
2022-10-08T11:24:51.517Z,17.60
2022-10-08T11:27:29.106Z,17.60
2022-10-08T11:30:03.774Z,17.60
2022-10-08T11:32:33.647Z,17.60
2022-10-08T11:35:19.891Z,17.70
2022-10-08T11:37:51.588Z,17.70
2022-10-08T11:40:30.304Z,17.70
2022-10-08T11:43:08.259Z,17.80
2022-10-08T11:45:39.954Z,17.80
2022-10-08T11:48:31.705Z,17.90
2022-10-08T11:51:41.160Z,17.90
2022-10-08T11:54:14.516Z,17.90
2022-10-08T11:56:47.397Z,17.90
2022-10-08T11:59:32.368Z,17.90
2022-10-08T12:02:02.578Z,17.90
2022-10-08T12:04:34.336Z,17.90
2022-10-08T12:07:19.405Z,17.90
2022-10-08T12:10:04.583Z,18.00
2022-10-08T12:13:25.738Z,18.10
2022-10-08T12:15:59.712Z,18.20
2022-10-08T12:18:44.352Z,18.20
2022-10-08T12:21:48.555Z,18.20
2022-10-08T12:24:54.012Z,18.30
2022-10-08T12:27:31.360Z,18.30
2022-10-08T12:30:03.168Z,18.40
2022-10-08T12:32:32.653Z,18.50
2022-10-08T12:35:02.234Z,18.60
2022-10-08T12:37:45.869Z,18.60
2022-10-08T12:40:24.760Z,18.60
2022-10-08T12:43:00.077Z,18.60
2022-10-08T12:45:35.533Z,18.70
2022-10-08T12:48:12.797Z,18.70
2022-10-08T12:50:50.933Z,18.70
2022-10-08T12:53:19.722Z,18.60
2022-10-08T12:55:52.917Z,18.50
2022-10-08T12:58:25.934Z,18.50
2022-10-08T13:00:58.277Z,18.40
2022-10-08T13:03:26.665Z,18.40
2022-10-08T13:05:56.632Z,18.40
2022-10-08T13:08:31.360Z,18.20
2022-10-08T13:11:00.961Z,18.20
2022-10-08T13:13:34.682Z,18.00
2022-10-08T13:16:06.192Z,17.90
2022-10-08T13:18:36.076Z,17.80
2022-10-08T13:21:07.951Z,17.80
2022-10-08T13:23:38.189Z,17.70
2022-10-08T13:26:26.846Z,17.60
2022-10-08T13:29:19.533Z,17.60
2022-10-08T13:31:55.565Z,17.50
2022-10-08T13:34:24.620Z,17.50
2022-10-08T13:36:56.243Z,17.50
2022-10-08T13:39:27.352Z,17.50
2022-10-08T13:41:58.270Z,17.50
2022-10-08T13:44:27.669Z,17.50
2022-10-08T13:47:01.302Z,17.50
2022-10-08T13:49:33.653Z,17.50
2022-10-08T13:52:02.625Z,17.40
2022-10-08T13:54:33.501Z,17.40
2022-10-08T13:57:02.108Z,17.40
2022-10-08T13:59:30.990Z,17.30
2022-10-08T14:02:00.587Z,17.30
2022-10-08T14:04:28.725Z,17.30
2022-10-08T14:07:00.070Z,17.30
2022-10-08T14:09:30.307Z,17.20
2022-10-08T14:12:04.955Z,17.20
2022-10-08T14:14:33.210Z,17.20
2022-10-08T14:17:02.666Z,17.20
2022-10-08T14:19:30.766Z,17.20
2022-10-08T14:21:58.864Z,17.30
2022-10-08T14:24:26.915Z,17.30
2022-10-08T14:26:54.979Z,17.30
2022-10-08T14:29:23.010Z,17.30
2022-10-08T14:31:51.364Z,17.30
2022-10-08T14:34:20.991Z,17.30
2022-10-08T14:36:50.226Z,17.30
2022-10-08T14:39:18.244Z,17.20
2022-10-08T14:41:46.969Z,17.20
2022-10-08T14:44:16.762Z,17.20
2022-10-08T14:46:45.081Z,17.20
2022-10-08T14:49:13.170Z,17.20
2022-10-08T14:51:43.294Z,17.20
2022-10-08T14:54:12.059Z,17.10
2022-10-08T14:56:41.864Z,17.10
2022-10-08T14:59:10.505Z,17.00
2022-10-08T15:01:38.853Z,17.10
2022-10-08T15:04:08.038Z,17.10
2022-10-08T15:06:36.297Z,17.20
2022-10-08T15:09:05.734Z,17.20
2022-10-08T15:11:33.824Z,17.20
2022-10-08T15:14:02.231Z,17.10
2022-10-08T15:16:30.793Z,17.10
2022-10-08T15:18:58.929Z,17.00
2022-10-08T15:21:27.186Z,16.90
2022-10-08T15:23:57.083Z,16.90
2022-10-08T15:26:27.090Z,16.80
2022-10-08T15:28:55.139Z,16.70
2022-10-08T15:31:25.080Z,16.70
2022-10-08T15:33:56.122Z,16.60
2022-10-08T15:36:25.984Z,16.50
2022-10-08T15:38:58.181Z,16.30
2022-10-08T15:41:29.624Z,16.20
2022-10-08T15:44:07.424Z,16.10
2022-10-08T15:46:35.551Z,16.10
2022-10-08T15:49:03.649Z,16.00
2022-10-08T15:51:32.267Z,15.90
2022-10-08T15:54:01.371Z,15.90
2022-10-08T15:56:31.349Z,15.90
2022-10-08T15:59:00.236Z,15.80
2022-10-08T16:01:29.728Z,15.80
2022-10-08T16:04:00.112Z,15.80
2022-10-08T16:06:30.485Z,15.80
2022-10-08T16:08:58.951Z,15.80
2022-10-08T16:11:29.256Z,15.70
2022-10-08T16:14:01.610Z,15.70
2022-10-08T16:16:30.121Z,15.70
2022-10-08T16:18:59.556Z,15.60
2022-10-08T16:21:29.117Z,15.60
2022-10-08T16:23:58.787Z,15.50
2022-10-08T16:26:28.932Z,15.50
2022-10-08T16:29:00.839Z,15.50
2022-10-08T16:31:31.255Z,15.40
2022-10-08T16:34:00.843Z,15.40
2022-10-08T16:36:31.223Z,15.40
2022-10-08T16:39:03.493Z,15.30
2022-10-08T16:41:33.329Z,15.30
2022-10-08T16:44:11.815Z,15.30
2022-10-08T16:46:43.455Z,15.30
2022-10-08T16:49:19.607Z,15.30
2022-10-08T16:51:51.955Z,15.30
2022-10-08T16:54:20.271Z,15.30
2022-10-08T16:56:48.945Z,15.30
2022-10-08T16:59:21.131Z,15.20
2022-10-08T17:01:51.508Z,15.20
2022-10-08T17:04:24.697Z,15.10
2022-10-08T17:06:52.908Z,15.10
2022-10-08T17:09:23.477Z,15.10
2022-10-08T17:11:52.177Z,15.00
2022-10-08T17:14:21.666Z,15.00
2022-10-08T17:16:50.811Z,14.90
2022-10-08T17:19:19.008Z,14.90
2022-10-08T17:21:47.284Z,14.80
2022-10-08T17:24:15.355Z,14.80
2022-10-08T17:26:44.067Z,14.80
2022-10-08T17:29:13.155Z,14.70
2022-10-08T17:31:43.221Z,14.60
2022-10-08T17:34:12.125Z,14.60
2022-10-08T17:36:43.920Z,14.50
2022-10-08T17:39:13.922Z,14.50
2022-10-08T17:41:43.462Z,14.40
2022-10-08T17:44:12.420Z,14.40
2022-10-08T17:46:45.675Z,14.40
2022-10-08T17:49:14.312Z,14.40
2022-10-08T17:51:42.457Z,14.40
2022-10-08T17:54:14.416Z,14.40
2022-10-08T17:56:42.700Z,14.30
2022-10-08T17:59:14.253Z,14.30
2022-10-08T18:01:45.496Z,14.30
2022-10-08T18:04:15.564Z,14.30
2022-10-08T18:06:46.161Z,14.30
2022-10-08T18:09:16.416Z,14.20
2022-10-08T18:11:47.177Z,14.20
2022-10-08T18:14:17.151Z,14.20
2022-10-08T18:16:48.435Z,14.20
2022-10-08T18:19:17.102Z,14.30
2022-10-08T18:21:45.233Z,14.30
2022-10-08T18:24:13.398Z,14.30
2022-10-08T18:26:41.752Z,14.40
2022-10-08T18:29:12.388Z,14.40
2022-10-08T18:31:42.152Z,14.40
2022-10-08T18:34:14.890Z,14.40
2022-10-08T18:36:43.049Z,14.30
2022-10-08T18:39:13.615Z,14.30
2022-10-08T18:41:43.402Z,14.20
2022-10-08T18:44:14.366Z,14.10
2022-10-08T18:46:44.666Z,14.10
2022-10-08T18:49:17.506Z,14.00
2022-10-08T18:51:45.669Z,14.00
2022-10-08T18:54:14.040Z,13.90
2022-10-08T18:56:42.171Z,13.90
2022-10-08T18:59:13.156Z,13.90
2022-10-08T19:01:42.793Z,13.80
2022-10-08T19:04:15.736Z,13.80
2022-10-08T19:06:45.449Z,13.70
2022-10-08T19:09:13.776Z,13.70
2022-10-08T19:11:44.882Z,13.70
2022-10-08T19:14:15.392Z,13.60
2022-10-08T19:16:44.321Z,13.60
2022-10-08T19:19:16.741Z,13.60
2022-10-08T19:21:44.893Z,13.60
2022-10-08T19:24:16.326Z,13.50
2022-10-08T19:26:44.910Z,13.50
2022-10-08T19:29:16.488Z,13.50
2022-10-08T19:31:47.409Z,13.50
2022-10-08T19:34:18.927Z,13.40
2022-10-08T19:36:47.457Z,13.40
2022-10-08T19:39:16.948Z,13.40
2022-10-08T19:41:45.193Z,13.40
2022-10-08T19:44:14.537Z,13.40
2022-10-08T19:46:42.696Z,13.30
2022-10-08T19:49:11.070Z,13.30
2022-10-08T19:51:41.035Z,13.30
2022-10-08T19:54:09.411Z,13.30
2022-10-08T19:56:37.652Z,13.30
2022-10-08T19:59:06.749Z,13.30
2022-10-08T20:01:36.500Z,13.20
2022-10-08T20:04:06.971Z,13.20
2022-10-08T20:06:39.738Z,13.20
2022-10-08T20:09:12.368Z,13.10
2022-10-08T20:11:41.605Z,13.20
2022-10-08T20:14:10.505Z,13.10
2022-10-08T20:16:40.630Z,13.10
2022-10-08T20:19:14.422Z,13.10
2022-10-08T20:21:42.456Z,13.10
2022-10-08T20:24:12.520Z,13.00
2022-10-08T20:26:42.073Z,13.00
2022-10-08T20:29:12.521Z,13.00
2022-10-08T20:31:43.168Z,13.00
2022-10-08T20:34:14.516Z,13.00
2022-10-08T20:36:42.612Z,13.00
2022-10-08T20:39:13.969Z,12.90
2022-10-08T20:41:42.230Z,12.90
2022-10-08T20:44:10.665Z,12.90
2022-10-08T20:46:39.730Z,12.90
2022-10-08T20:49:08.276Z,12.90
2022-10-08T20:51:39.565Z,12.80
2022-10-08T20:54:09.147Z,12.80
2022-10-08T20:56:40.720Z,12.80
2022-10-08T20:59:09.391Z,12.80
2022-10-08T21:01:39.346Z,12.80
2022-10-08T21:04:09.027Z,12.80
2022-10-08T21:06:39.202Z,12.80
2022-10-08T21:09:07.811Z,12.70
2022-10-08T21:11:36.580Z,12.70
2022-10-08T21:14:07.653Z,12.70
2022-10-08T21:16:37.303Z,12.70
2022-10-08T21:19:08.305Z,12.70
2022-10-08T21:21:36.614Z,12.60
2022-10-08T21:24:04.822Z,12.60
2022-10-08T21:26:34.191Z,12.60
2022-10-08T21:29:04.481Z,12.60
2022-10-08T21:31:36.090Z,12.60
2022-10-08T21:34:05.103Z,12.60
2022-10-08T21:36:35.204Z,12.60
2022-10-08T21:39:04.775Z,12.60
2022-10-08T21:41:34.941Z,12.60
2022-10-08T21:44:05.336Z,12.60
2022-10-08T21:46:36.325Z,12.50
2022-10-08T21:49:06.524Z,12.50
2022-10-08T21:51:36.159Z,12.50
2022-10-08T21:54:06.519Z,12.50
2022-10-08T21:56:37.591Z,12.50
2022-10-08T21:59:08.335Z,12.50
2022-10-08T22:01:40.362Z,12.50
2022-10-08T22:04:10.130Z,12.50
2022-10-08T22:06:40.364Z,12.40
2022-10-08T22:09:10.894Z,12.50
2022-10-08T22:11:39.053Z,12.50
2022-10-08T22:14:07.605Z,12.50
2022-10-08T22:16:37.687Z,12.50
2022-10-08T22:19:06.229Z,12.40
2022-10-08T22:21:34.733Z,12.40
2022-10-08T22:24:03.064Z,12.40
2022-10-08T22:26:32.644Z,12.30
2022-10-08T22:29:01.372Z,12.30
2022-10-08T22:31:30.766Z,12.30
2022-10-08T22:34:00.744Z,12.30
2022-10-08T22:36:31.748Z,12.30
2022-10-08T22:39:00.170Z,12.30
2022-10-08T22:41:31.101Z,12.30
2022-10-08T22:44:00.268Z,12.30
2022-10-08T22:46:30.871Z,12.30
2022-10-08T22:49:01.417Z,12.30
2022-10-08T22:51:30.647Z,12.20
2022-10-08T22:53:59.105Z,12.20
2022-10-08T22:56:29.422Z,12.20
2022-10-08T22:58:59.224Z,12.20
2022-10-08T23:01:28.461Z,12.20
2022-10-08T23:03:56.523Z,12.20
2022-10-08T23:06:27.275Z,12.20
2022-10-08T23:08:58.040Z,12.20
2022-10-08T23:11:26.853Z,12.20
2022-10-08T23:13:57.622Z,12.20
2022-10-08T23:16:27.777Z,12.10
2022-10-08T23:18:57.659Z,12.10
2022-10-08T23:21:27.567Z,12.10
2022-10-08T23:23:56.214Z,12.10
2022-10-08T23:26:25.045Z,12.10
2022-10-08T23:28:54.853Z,12.10
2022-10-08T23:31:24.799Z,12.00
2022-10-08T23:33:54.265Z,12.10
2022-10-08T23:36:24.335Z,12.10
2022-10-08T23:38:54.048Z,12.00
2022-10-08T23:41:22.092Z,12.00
2022-10-08T23:43:51.781Z,12.00
2022-10-08T23:46:22.038Z,12.00
2022-10-08T23:48:50.570Z,12.00
2022-10-08T23:51:19.493Z,12.00
2022-10-08T23:53:48.133Z,12.00
2022-10-08T23:56:17.963Z,12.00
2022-10-08T23:58:46.245Z,12.00
